createdAt,value
2019-04-05T13:03:12.043Z,12.46
2019-04-05T13:05:44.682Z,12.41
2019-04-05T13:08:16.486Z,12.47
2019-04-05T13:10:48.281Z,12.60
2019-04-05T13:13:20.004Z,12.80
2019-04-05T13:15:51.412Z,12.86
2019-04-05T13:18:25.129Z,12.83
2019-04-05T13:20:56.152Z,12.86
2019-04-05T13:23:27.511Z,12.88
2019-04-05T13:25:58.845Z,13.01
2019-04-05T13:28:30.528Z,12.94
2019-04-05T13:31:01.854Z,12.80
2019-04-05T13:33:33.209Z,12.72
2019-04-05T13:36:04.787Z,12.83
2019-04-05T13:38:36.524Z,12.80
2019-04-05T13:41:08.182Z,12.81
2019-04-05T13:43:40.245Z,12.85
2019-04-05T13:46:21.333Z,12.84
2019-04-05T13:48:44.782Z,12.85
2019-04-05T13:51:27.260Z,12.71
2019-04-05T13:53:49.150Z,12.69
2019-04-05T13:56:20.666Z,12.66
2019-04-05T13:58:52.002Z,12.73
2019-04-05T14:01:23.258Z,12.73
2019-04-05T14:03:54.595Z,12.68
2019-04-05T14:06:26.173Z,12.58
2019-04-05T14:08:57.672Z,12.66
2019-04-05T14:11:28.948Z,12.65
2019-04-05T14:14:00.850Z,12.55
2019-04-05T14:16:32.024Z,12.55
2019-04-05T14:19:03.761Z,12.57
2019-04-05T14:21:41.170Z,12.56
2019-04-05T14:24:08.989Z,12.60
2019-04-05T14:26:40.331Z,12.55
2019-04-05T14:29:11.988Z,12.55
2019-04-05T14:31:43.708Z,12.58
2019-04-05T14:34:15.325Z,12.62
2019-04-05T14:36:47.021Z,12.62
2019-04-05T14:39:18.718Z,12.62
2019-04-05T14:41:50.476Z,12.57
2019-04-05T14:44:22.229Z,12.54
2019-04-05T14:46:53.592Z,12.54
2019-04-05T14:49:25.193Z,12.56
2019-04-05T15:53:31.902Z,11.89
2019-04-05T15:56:04.368Z,11.83
2019-04-05T15:58:36.255Z,11.76
2019-04-05T16:01:08.387Z,11.75
2019-04-05T16:03:39.823Z,11.72
2019-04-05T16:06:11.149Z,11.68
2019-04-05T16:08:42.449Z,11.61
2019-04-05T16:11:13.855Z,11.56
2019-04-05T16:13:45.339Z,11.51
2019-04-05T16:16:16.687Z,11.48
2019-04-05T16:18:48.018Z,11.45
2019-04-05T16:21:19.597Z,11.40
2019-04-05T16:23:52.395Z,11.34
2019-04-05T16:26:23.983Z,11.31
2019-04-05T16:28:55.409Z,11.24
2019-04-05T16:31:26.721Z,11.20
2019-04-05T16:33:58.301Z,11.20
2019-04-05T16:36:31.066Z,11.12
2019-04-05T16:39:02.704Z,11.09
2019-04-05T16:41:35.707Z,11.06
2019-04-05T16:44:07.079Z,11.06
2019-04-05T16:46:38.535Z,11.06
2019-04-05T16:49:10.045Z,11.07
2019-04-05T16:51:41.616Z,11.05
2019-04-05T16:54:13.404Z,11.02
2019-04-05T16:56:44.896Z,10.97
2019-04-05T16:59:16.250Z,10.95
2019-04-05T17:01:47.514Z,10.90
2019-04-05T17:04:19.028Z,10.89
2019-04-05T17:06:50.404Z,10.87
2019-04-05T17:09:21.756Z,10.84
2019-04-05T17:11:53.010Z,10.75
2019-04-05T17:14:24.523Z,10.68
2019-04-05T17:16:55.806Z,10.60
2019-04-05T17:19:27.134Z,10.59
2019-04-05T17:21:58.524Z,10.60
2019-04-05T17:24:30.283Z,10.57
2019-04-05T17:27:01.902Z,10.55
2019-04-05T17:29:33.254Z,10.53
2019-04-05T17:32:04.790Z,10.51
2019-04-05T17:34:36.156Z,10.53
2019-04-05T17:37:07.482Z,10.53
2019-04-05T17:39:38.892Z,10.45
2019-04-05T17:42:10.194Z,10.37
2019-04-05T17:44:41.594Z,10.36
2019-04-05T17:47:12.994Z,10.30
2019-04-05T17:49:44.365Z,10.26
2019-04-05T17:52:15.685Z,10.20
2019-04-05T17:54:47.054Z,10.09
2019-04-05T17:57:18.371Z,9.90
2019-04-05T17:59:49.842Z,9.81
2019-04-05T18:02:21.186Z,9.65
2019-04-05T18:04:52.627Z,9.58
2019-04-05T18:07:24.016Z,9.51
2019-04-05T18:09:55.433Z,9.42
2019-04-05T18:12:26.742Z,9.30
2019-04-05T18:14:58.262Z,9.23
2019-04-05T18:17:29.541Z,9.19
2019-04-05T18:20:01.083Z,9.11
2019-04-05T18:22:32.371Z,9.07
2019-04-05T18:25:04.199Z,8.91
2019-04-05T18:27:35.595Z,8.94
2019-04-05T18:30:07.588Z,8.86
2019-04-05T18:32:39.043Z,8.77
2019-04-05T18:35:10.427Z,8.71
2019-04-05T18:37:41.809Z,8.58
2019-04-05T18:40:13.300Z,8.56
2019-04-05T18:42:44.579Z,8.58
